sensor_id;sensor_type;location;lat;lon;timestamp;temperature;humidity
23751;DHT22;12055;52.098;13.176;2022-09-25T00:00:20;10.90;99.90
23751;DHT22;12055;52.098;13.176;2022-09-25T00:02:45;10.90;99.90
23751;DHT22;12055;52.098;13.176;2022-09-25T00:05:11;10.90;99.90
23751;DHT22;12055;52.098;13.176;2022-09-25T00:07:36;11.00;99.90
23751;DHT22;12055;52.098;13.176;2022-09-25T00:10:02;11.00;99.90
23751;DHT22;12055;52.098;13.176;2022-09-25T00:12:28;11.10;99.90
23751;DHT22;12055;52.098;13.176;2022-09-25T00:14:53;11.10;99.90
23751;DHT22;12055;52.098;13.176;2022-09-25T00:17:20;11.10;99.90
23751;DHT22;12055;52.098;13.176;2022-09-25T00:19:45;11.10;99.90
23751;DHT22;12055;52.098;13.176;2022-09-25T00:22:22;11.20;99.90
23751;DHT22;12055;52.098;13.176;2022-09-25T00:24:48;11.20;99.90
23751;DHT22;12055;52.098;13.176;2022-09-25T00:27:15;11.20;99.90
23751;DHT22;12055;52.098;13.176;2022-09-25T00:29:41;11.20;99.90
23751;DHT22;12055;52.098;13.176;2022-09-25T00:32:08;11.30;99.90
23751;DHT22;12055;52.098;13.176;2022-09-25T00:34:36;11.30;99.90
23751;DHT22;12055;52.098;13.176;2022-09-25T00:37:01;11.30;99.90
23751;DHT22;12055;52.098;13.176;2022-09-25T00:39:27;11.40;99.90
23751;DHT22;12055;52.098;13.176;2022-09-25T00:41:53;11.40;99.90
23751;DHT22;12055;52.098;13.176;2022-09-25T00:44:43;11.40;99.90
23751;DHT22;12055;52.098;13.176;2022-09-25T00:47:14;11.50;99.90
23751;DHT22;12055;52.098;13.176;2022-09-25T00:49:42;11.50;99.90
23751;DHT22;12055;52.098;13.176;2022-09-25T00:52:10;11.50;99.90
23751;DHT22;12055;52.098;13.176;2022-09-25T00:54:52;11.50;99.90
23751;DHT22;12055;52.098;13.176;2022-09-25T00:57:21;11.50;99.90
23751;DHT22;12055;52.098;13.176;2022-09-25T00:59:53;11.50;99.90
23751;DHT22;12055;52.098;13.176;2022-09-25T01:02:26;11.50;99.90
23751;DHT22;12055;52.098;13.176;2022-09-25T01:04:55;11.50;99.90
23751;DHT22;12055;52.098;13.176;2022-09-25T01:07:21;11.50;99.90
23751;DHT22;12055;52.098;13.176;2022-09-25T01:09:48;11.50;99.90
23751;DHT22;12055;52.098;13.176;2022-09-25T01:12:14;11.60;99.90
23751;DHT22;12055;52.098;13.176;2022-09-25T01:14:40;11.60;99.90
23751;DHT22;12055;52.098;13.176;2022-09-25T01:17:15;11.60;99.90
23751;DHT22;12055;52.098;13.176;2022-09-25T01:23:19;11.60;99.90
23751;DHT22;12055;52.098;13.176;2022-09-25T01:28:53;11.60;99.90
23751;DHT22;12055;52.098;13.176;2022-09-25T01:34:38;11.60;99.90
23751;DHT22;12055;52.098;13.176;2022-09-25T01:37:10;11.60;99.90
23751;DHT22;12055;52.098;13.176;2022-09-25T01:39:45;11.60;99.90
23751;DHT22;12055;52.098;13.176;2022-09-25T01:42:34;11.60;99.90
23751;DHT22;12055;52.098;13.176;2022-09-25T01:45:06;11.60;99.90
23751;DHT22;12055;52.098;13.176;2022-09-25T01:47:36;11.60;99.90
23751;DHT22;12055;52.098;13.176;2022-09-25T01:50:13;11.60;99.90
23751;DHT22;12055;52.098;13.176;2022-09-25T01:52:43;11.60;99.90
23751;DHT22;12055;52.098;13.176;2022-09-25T01:55:29;11.50;99.90
23751;DHT22;12055;52.098;13.176;2022-09-25T01:58:35;11.50;99.90
23751;DHT22;12055;52.098;13.176;2022-09-25T02:01:10;11.50;99.90
23751;DHT22;12055;52.098;13.176;2022-09-25T02:03:45;11.50;99.90
23751;DHT22;12055;52.098;13.176;2022-09-25T02:06:16;11.50;99.90
23751;DHT22;12055;52.098;13.176;2022-09-25T02:11:39;11.40;99.90
23751;DHT22;12055;52.098;13.176;2022-09-25T02:14:22;11.50;99.90
23751;DHT22;12055;52.098;13.176;2022-09-25T02:16:52;11.40;99.90
23751;DHT22;12055;52.098;13.176;2022-09-25T02:19:19;11.40;99.90
23751;DHT22;12055;52.098;13.176;2022-09-25T02:22:14;11.40;99.90
23751;DHT22;12055;52.098;13.176;2022-09-25T02:25:05;11.40;99.90
23751;DHT22;12055;52.098;13.176;2022-09-25T02:27:34;11.40;99.90
23751;DHT22;12055;52.098;13.176;2022-09-25T02:29:59;11.40;99.90
23751;DHT22;12055;52.098;13.176;2022-09-25T02:32:29;11.40;99.90
23751;DHT22;12055;52.098;13.176;2022-09-25T02:34:56;11.30;99.90
23751;DHT22;12055;52.098;13.176;2022-09-25T02:37:21;11.30;99.90
23751;DHT22;12055;52.098;13.176;2022-09-25T02:39:51;11.30;99.90
23751;DHT22;12055;52.098;13.176;2022-09-25T02:45:00;11.40;99.90
23751;DHT22;12055;52.098;13.176;2022-09-25T02:47:34;11.40;99.90
23751;DHT22;12055;52.098;13.176;2022-09-25T02:50:12;11.40;99.90
23751;DHT22;12055;52.098;13.176;2022-09-25T02:52:55;11.40;99.90
23751;DHT22;12055;52.098;13.176;2022-09-25T02:55:30;11.50;99.90
23751;DHT22;12055;52.098;13.176;2022-09-25T02:58:21;11.50;99.90
23751;DHT22;12055;52.098;13.176;2022-09-25T03:00:51;11.50;99.90
23751;DHT22;12055;52.098;13.176;2022-09-25T03:03:18;11.40;99.90
23751;DHT22;12055;52.098;13.176;2022-09-25T03:05:47;11.30;99.90
23751;DHT22;12055;52.098;13.176;2022-09-25T03:08:13;11.30;99.90
23751;DHT22;12055;52.098;13.176;2022-09-25T03:10:58;11.40;99.90
23751;DHT22;12055;52.098;13.176;2022-09-25T03:13:25;11.30;99.90
23751;DHT22;12055;52.098;13.176;2022-09-25T03:15:59;11.30;99.90
23751;DHT22;12055;52.098;13.176;2022-09-25T03:18:26;11.20;99.90
23751;DHT22;12055;52.098;13.176;2022-09-25T03:20:53;11.30;99.90
23751;DHT22;12055;52.098;13.176;2022-09-25T03:23:18;11.20;99.90
23751;DHT22;12055;52.098;13.176;2022-09-25T03:25:44;11.10;99.90
23751;DHT22;12055;52.098;13.176;2022-09-25T03:28:10;11.10;99.90
23751;DHT22;12055;52.098;13.176;2022-09-25T03:30:40;11.10;99.90
23751;DHT22;12055;52.098;13.176;2022-09-25T03:33:07;11.10;99.90
23751;DHT22;12055;52.098;13.176;2022-09-25T03:35:34;11.10;99.90
23751;DHT22;12055;52.098;13.176;2022-09-25T03:37:59;11.20;99.90
23751;DHT22;12055;52.098;13.176;2022-09-25T03:40:24;11.20;99.90
23751;DHT22;12055;52.098;13.176;2022-09-25T03:42:50;11.20;99.90
23751;DHT22;12055;52.098;13.176;2022-09-25T03:45:15;11.20;99.90
23751;DHT22;12055;52.098;13.176;2022-09-25T03:47:41;11.20;99.90
23751;DHT22;12055;52.098;13.176;2022-09-25T03:50:07;11.20;99.90
23751;DHT22;12055;52.098;13.176;2022-09-25T03:52:33;11.20;99.90
23751;DHT22;12055;52.098;13.176;2022-09-25T03:54:58;11.20;99.90
23751;DHT22;12055;52.098;13.176;2022-09-25T03:57:24;11.20;99.90
23751;DHT22;12055;52.098;13.176;2022-09-25T03:59:50;11.30;99.90
23751;DHT22;12055;52.098;13.176;2022-09-25T04:02:16;11.30;99.90
23751;DHT22;12055;52.098;13.176;2022-09-25T04:04:41;11.30;99.90
23751;DHT22;12055;52.098;13.176;2022-09-25T04:07:06;11.30;99.90
23751;DHT22;12055;52.098;13.176;2022-09-25T04:09:33;11.30;99.90
23751;DHT22;12055;52.098;13.176;2022-09-25T04:11:58;11.20;99.90
23751;DHT22;12055;52.098;13.176;2022-09-25T04:14:25;11.20;99.90
23751;DHT22;12055;52.098;13.176;2022-09-25T04:16:50;11.20;99.90
23751;DHT22;12055;52.098;13.176;2022-09-25T04:19:16;11.30;99.90
23751;DHT22;12055;52.098;13.176;2022-09-25T04:21:41;11.20;99.90
23751;DHT22;12055;52.098;13.176;2022-09-25T04:24:07;11.20;99.90
23751;DHT22;12055;52.098;13.176;2022-09-25T04:26:51;11.20;99.90
23751;DHT22;12055;52.098;13.176;2022-09-25T04:29:18;11.20;99.90
23751;DHT22;12055;52.098;13.176;2022-09-25T04:31:44;11.20;99.90
23751;DHT22;12055;52.098;13.176;2022-09-25T04:34:29;11.20;99.90
23751;DHT22;12055;52.098;13.176;2022-09-25T04:36:55;11.10;99.90
23751;DHT22;12055;52.098;13.176;2022-09-25T04:39:20;11.10;99.90
23751;DHT22;12055;52.098;13.176;2022-09-25T04:41:46;11.20;99.90
23751;DHT22;12055;52.098;13.176;2022-09-25T04:44:12;11.20;99.90
23751;DHT22;12055;52.098;13.176;2022-09-25T04:46:37;11.20;99.90
23751;DHT22;12055;52.098;13.176;2022-09-25T04:49:03;11.20;99.90
23751;DHT22;12055;52.098;13.176;2022-09-25T04:51:28;11.20;99.90
23751;DHT22;12055;52.098;13.176;2022-09-25T04:53:55;11.10;99.90
23751;DHT22;12055;52.098;13.176;2022-09-25T04:56:20;11.10;99.90
23751;DHT22;12055;52.098;13.176;2022-09-25T04:58:47;11.10;99.90
23751;DHT22;12055;52.098;13.176;2022-09-25T05:01:15;11.10;99.90
23751;DHT22;12055;52.098;13.176;2022-09-25T05:03:40;11.10;99.90
23751;DHT22;12055;52.098;13.176;2022-09-25T05:06:07;11.20;99.90
23751;DHT22;12055;52.098;13.176;2022-09-25T05:08:32;11.20;99.90
23751;DHT22;12055;52.098;13.176;2022-09-25T05:10:58;11.30;99.90
23751;DHT22;12055;52.098;13.176;2022-09-25T05:13:24;11.30;99.90
23751;DHT22;12055;52.098;13.176;2022-09-25T05:15:49;11.30;99.90
23751;DHT22;12055;52.098;13.176;2022-09-25T05:18:20;11.30;99.90
23751;DHT22;12055;52.098;13.176;2022-09-25T05:20:47;11.40;99.90
23751;DHT22;12055;52.098;13.176;2022-09-25T05:23:13;11.40;99.90
23751;DHT22;12055;52.098;13.176;2022-09-25T05:25:39;11.40;99.90
23751;DHT22;12055;52.098;13.176;2022-09-25T05:28:05;11.40;99.90
23751;DHT22;12055;52.098;13.176;2022-09-25T05:30:32;11.40;99.90
23751;DHT22;12055;52.098;13.176;2022-09-25T05:32:58;11.50;99.90
23751;DHT22;12055;52.098;13.176;2022-09-25T05:35:29;11.50;99.90
23751;DHT22;12055;52.098;13.176;2022-09-25T05:37:54;11.50;99.90
23751;DHT22;12055;52.098;13.176;2022-09-25T05:40:20;11.60;99.90
23751;DHT22;12055;52.098;13.176;2022-09-25T05:42:47;11.60;99.90
23751;DHT22;12055;52.098;13.176;2022-09-25T05:45:14;11.70;99.90
23751;DHT22;12055;52.098;13.176;2022-09-25T05:47:40;11.70;99.90
23751;DHT22;12055;52.098;13.176;2022-09-25T05:50:07;11.80;99.90
23751;DHT22;12055;52.098;13.176;2022-09-25T05:52:33;11.90;99.90
23751;DHT22;12055;52.098;13.176;2022-09-25T05:54:59;12.00;99.90
23751;DHT22;12055;52.098;13.176;2022-09-25T05:57:25;12.20;99.90
23751;DHT22;12055;52.098;13.176;2022-09-25T05:59:50;12.30;99.90
23751;DHT22;12055;52.098;13.176;2022-09-25T06:02:16;12.40;99.90
23751;DHT22;12055;52.098;13.176;2022-09-25T06:04:41;12.50;99.90
23751;DHT22;12055;52.098;13.176;2022-09-25T06:07:07;12.50;99.90
23751;DHT22;12055;52.098;13.176;2022-09-25T06:09:35;12.40;99.90
23751;DHT22;12055;52.098;13.176;2022-09-25T06:12:01;12.30;99.90
23751;DHT22;12055;52.098;13.176;2022-09-25T06:14:27;12.40;99.90
23751;DHT22;12055;52.098;13.176;2022-09-25T06:16:53;12.50;99.90
23751;DHT22;12055;52.098;13.176;2022-09-25T06:19:18;12.60;99.90
23751;DHT22;12055;52.098;13.176;2022-09-25T06:21:45;12.60;99.90
23751;DHT22;12055;52.098;13.176;2022-09-25T06:24:11;12.60;99.90
23751;DHT22;12055;52.098;13.176;2022-09-25T06:26:37;12.70;99.90
23751;DHT22;12055;52.098;13.176;2022-09-25T06:29:02;12.70;99.90
23751;DHT22;12055;52.098;13.176;2022-09-25T06:31:28;12.70;99.90
23751;DHT22;12055;52.098;13.176;2022-09-25T06:33:54;12.80;99.90
23751;DHT22;12055;52.098;13.176;2022-09-25T06:36:19;12.80;99.90
23751;DHT22;12055;52.098;13.176;2022-09-25T06:38:45;12.80;99.90
23751;DHT22;12055;52.098;13.176;2022-09-25T06:41:11;12.80;99.90
23751;DHT22;12055;52.098;13.176;2022-09-25T06:43:36;12.90;99.90
23751;DHT22;12055;52.098;13.176;2022-09-25T06:46:02;13.00;99.90
23751;DHT22;12055;52.098;13.176;2022-09-25T06:48:28;13.10;99.90
23751;DHT22;12055;52.098;13.176;2022-09-25T06:50:56;13.30;99.90
23751;DHT22;12055;52.098;13.176;2022-09-25T06:53:22;13.40;99.90
23751;DHT22;12055;52.098;13.176;2022-09-25T06:55:49;13.50;99.90
23751;DHT22;12055;52.098;13.176;2022-09-25T06:58:18;13.60;99.90
23751;DHT22;12055;52.098;13.176;2022-09-25T07:00:48;13.60;99.90
23751;DHT22;12055;52.098;13.176;2022-09-25T07:03:14;13.70;99.90
23751;DHT22;12055;52.098;13.176;2022-09-25T07:06:00;13.70;99.90
23751;DHT22;12055;52.098;13.176;2022-09-25T07:08:26;13.60;99.90
23751;DHT22;12055;52.098;13.176;2022-09-25T07:10:56;13.50;99.90
23751;DHT22;12055;52.098;13.176;2022-09-25T07:13:24;13.50;99.90
23751;DHT22;12055;52.098;13.176;2022-09-25T07:15:52;13.50;99.90
23751;DHT22;12055;52.098;13.176;2022-09-25T07:18:18;13.70;99.90
23751;DHT22;12055;52.098;13.176;2022-09-25T07:20:44;13.80;99.90
23751;DHT22;12055;52.098;13.176;2022-09-25T07:23:14;13.90;99.90
23751;DHT22;12055;52.098;13.176;2022-09-25T07:25:41;14.10;99.90
23751;DHT22;12055;52.098;13.176;2022-09-25T07:28:07;14.20;99.90
23751;DHT22;12055;52.098;13.176;2022-09-25T07:30:32;14.30;99.90
23751;DHT22;12055;52.098;13.176;2022-09-25T07:32:58;14.40;99.90
23751;DHT22;12055;52.098;13.176;2022-09-25T07:35:23;14.60;99.90
23751;DHT22;12055;52.098;13.176;2022-09-25T07:37:51;14.70;99.90
23751;DHT22;12055;52.098;13.176;2022-09-25T07:40:19;14.80;99.90
23751;DHT22;12055;52.098;13.176;2022-09-25T07:42:45;14.80;99.90
23751;DHT22;12055;52.098;13.176;2022-09-25T07:45:10;15.00;99.90
23751;DHT22;12055;52.098;13.176;2022-09-25T07:47:36;15.10;99.90
23751;DHT22;12055;52.098;13.176;2022-09-25T07:50:01;15.10;99.90
23751;DHT22;12055;52.098;13.176;2022-09-25T07:52:27;15.30;99.90
23751;DHT22;12055;52.098;13.176;2022-09-25T07:54:53;15.50;99.90
23751;DHT22;12055;52.098;13.176;2022-09-25T07:57:19;15.60;99.90
23751;DHT22;12055;52.098;13.176;2022-09-25T07:59:45;15.80;99.90
23751;DHT22;12055;52.098;13.176;2022-09-25T08:02:11;16.00;99.90
23751;DHT22;12055;52.098;13.176;2022-09-25T08:04:36;16.30;99.90
23751;DHT22;12055;52.098;13.176;2022-09-25T08:07:02;16.60;99.90
23751;DHT22;12055;52.098;13.176;2022-09-25T08:09:27;16.70;99.90
23751;DHT22;12055;52.098;13.176;2022-09-25T08:11:53;16.80;99.90
23751;DHT22;12055;52.098;13.176;2022-09-25T08:14:18;16.70;99.90
23751;DHT22;12055;52.098;13.176;2022-09-25T08:16:44;16.80;99.90
23751;DHT22;12055;52.098;13.176;2022-09-25T08:19:10;16.80;99.90
23751;DHT22;12055;52.098;13.176;2022-09-25T08:21:36;16.90;99.90
23751;DHT22;12055;52.098;13.176;2022-09-25T08:24:02;17.00;99.90
23751;DHT22;12055;52.098;13.176;2022-09-25T08:26:27;17.00;99.90
23751;DHT22;12055;52.098;13.176;2022-09-25T08:28:54;17.10;99.90
23751;DHT22;12055;52.098;13.176;2022-09-25T08:31:20;17.00;99.90
23751;DHT22;12055;52.098;13.176;2022-09-25T08:33:47;17.00;99.90
23751;DHT22;12055;52.098;13.176;2022-09-25T08:36:14;17.00;99.90
23751;DHT22;12055;52.098;13.176;2022-09-25T08:38:40;17.00;99.90
23751;DHT22;12055;52.098;13.176;2022-09-25T08:41:13;16.90;99.90
23751;DHT22;12055;52.098;13.176;2022-09-25T08:43:43;17.00;99.90
23751;DHT22;12055;52.098;13.176;2022-09-25T08:46:18;17.10;99.90
23751;DHT22;12055;52.098;13.176;2022-09-25T08:49:03;17.00;99.90
23751;DHT22;12055;52.098;13.176;2022-09-25T08:51:46;17.10;99.90
23751;DHT22;12055;52.098;13.176;2022-09-25T08:54:19;17.40;99.90
23751;DHT22;12055;52.098;13.176;2022-09-25T08:56:49;17.70;99.90
23751;DHT22;12055;52.098;13.176;2022-09-25T09:01:50;18.00;99.90
23751;DHT22;12055;52.098;13.176;2022-09-25T09:04:26;18.00;99.90
23751;DHT22;12055;52.098;13.176;2022-09-25T09:07:02;18.20;99.90
23751;DHT22;12055;52.098;13.176;2022-09-25T09:09:38;18.30;99.90
23751;DHT22;12055;52.098;13.176;2022-09-25T09:12:21;18.60;99.90
23751;DHT22;12055;52.098;13.176;2022-09-25T09:14:57;18.80;99.90
23751;DHT22;12055;52.098;13.176;2022-09-25T09:17:25;19.40;99.90
23751;DHT22;12055;52.098;13.176;2022-09-25T09:20:12;20.40;99.90
23751;DHT22;12055;52.098;13.176;2022-09-25T09:22:43;21.10;99.90
23751;DHT22;12055;52.098;13.176;2022-09-25T09:33:26;21.80;99.90
23751;DHT22;12055;52.098;13.176;2022-09-25T09:38:57;21.10;99.90
23751;DHT22;12055;52.098;13.176;2022-09-25T09:41:36;21.20;99.90
23751;DHT22;12055;52.098;13.176;2022-09-25T09:44:36;21.40;99.90
23751;DHT22;12055;52.098;13.176;2022-09-25T09:52:58;21.90;99.90
23751;DHT22;12055;52.098;13.176;2022-09-25T09:56:25;21.40;99.90
23751;DHT22;12055;52.098;13.176;2022-09-25T09:58:54;21.10;99.90
23751;DHT22;12055;52.098;13.176;2022-09-25T10:01:22;21.30;99.90
23751;DHT22;12055;52.098;13.176;2022-09-25T10:04:00;21.00;99.90
23751;DHT22;12055;52.098;13.176;2022-09-25T10:06:29;21.30;99.90
23751;DHT22;12055;52.098;13.176;2022-09-25T10:08:54;21.00;99.90
23751;DHT22;12055;52.098;13.176;2022-09-25T10:11:20;20.70;99.90
23751;DHT22;12055;52.098;13.176;2022-09-25T10:13:46;20.90;99.90
23751;DHT22;12055;52.098;13.176;2022-09-25T10:16:19;21.40;99.90
23751;DHT22;12055;52.098;13.176;2022-09-25T10:18:58;21.90;99.90
23751;DHT22;12055;52.098;13.176;2022-09-25T10:21:29;22.00;99.90
23751;DHT22;12055;52.098;13.176;2022-09-25T10:23:56;21.80;99.90
23751;DHT22;12055;52.098;13.176;2022-09-25T10:26:36;21.60;99.90
23751;DHT22;12055;52.098;13.176;2022-09-25T10:29:25;21.20;99.90
23751;DHT22;12055;52.098;13.176;2022-09-25T10:32:00;20.80;99.90
23751;DHT22;12055;52.098;13.176;2022-09-25T10:34:26;20.70;99.90
23751;DHT22;12055;52.098;13.176;2022-09-25T10:36:53;20.60;99.90
23751;DHT22;12055;52.098;13.176;2022-09-25T10:39:28;20.40;99.90
23751;DHT22;12055;52.098;13.176;2022-09-25T10:41:55;20.40;99.90
23751;DHT22;12055;52.098;13.176;2022-09-25T10:44:34;20.30;99.90
23751;DHT22;12055;52.098;13.176;2022-09-25T10:50:13;20.10;99.90
23751;DHT22;12055;52.098;13.176;2022-09-25T10:52:51;20.20;99.90
23751;DHT22;12055;52.098;13.176;2022-09-25T10:55:29;20.40;99.90
23751;DHT22;12055;52.098;13.176;2022-09-25T10:58:18;20.70;99.90
23751;DHT22;12055;52.098;13.176;2022-09-25T11:03:25;21.20;99.90
23751;DHT22;12055;52.098;13.176;2022-09-25T11:05:54;21.50;99.90
23751;DHT22;12055;52.098;13.176;2022-09-25T11:08:24;22.10;99.90
23751;DHT22;12055;52.098;13.176;2022-09-25T11:10:55;22.70;99.90
23751;DHT22;12055;52.098;13.176;2022-09-25T11:13:54;23.10;99.90
23751;DHT22;12055;52.098;13.176;2022-09-25T11:16:41;23.30;99.90
23751;DHT22;12055;52.098;13.176;2022-09-25T11:19:17;23.10;99.90
23751;DHT22;12055;52.098;13.176;2022-09-25T11:21:51;23.30;99.90
23751;DHT22;12055;52.098;13.176;2022-09-25T11:24:34;23.60;99.90
23751;DHT22;12055;52.098;13.176;2022-09-25T11:27:29;23.80;99.90
23751;DHT22;12055;52.098;13.176;2022-09-25T11:30:22;23.80;99.90
23751;DHT22;12055;52.098;13.176;2022-09-25T11:32:56;23.70;99.90
23751;DHT22;12055;52.098;13.176;2022-09-25T11:38:24;23.10;99.90
23751;DHT22;12055;52.098;13.176;2022-09-25T11:41:34;23.00;99.90
23751;DHT22;12055;52.098;13.176;2022-09-25T11:49:40;22.60;99.90
23751;DHT22;12055;52.098;13.176;2022-09-25T11:55:19;22.60;99.90
23751;DHT22;12055;52.098;13.176;2022-09-25T11:58:05;22.40;99.90
23751;DHT22;12055;52.098;13.176;2022-09-25T12:03:25;22.10;99.90
23751;DHT22;12055;52.098;13.176;2022-09-25T12:09:11;22.30;99.90
23751;DHT22;12055;52.098;13.176;2022-09-25T12:11:51;22.20;99.90
23751;DHT22;12055;52.098;13.176;2022-09-25T12:17:55;22.00;99.90
23751;DHT22;12055;52.098;13.176;2022-09-25T12:20:39;21.90;99.90
23751;DHT22;12055;52.098;13.176;2022-09-25T12:23:31;22.10;99.90
23751;DHT22;12055;52.098;13.176;2022-09-25T12:29:27;22.30;99.90
23751;DHT22;12055;52.098;13.176;2022-09-25T12:32:05;22.40;99.90
23751;DHT22;12055;52.098;13.176;2022-09-25T12:34:55;22.50;99.90
23751;DHT22;12055;52.098;13.176;2022-09-25T12:37:33;22.30;99.90
23751;DHT22;12055;52.098;13.176;2022-09-25T12:40:10;22.30;99.90
23751;DHT22;12055;52.098;13.176;2022-09-25T12:42:49;22.40;99.90
23751;DHT22;12055;52.098;13.176;2022-09-25T12:45:40;22.60;99.90
23751;DHT22;12055;52.098;13.176;2022-09-25T12:48:09;22.30;99.90
23751;DHT22;12055;52.098;13.176;2022-09-25T12:53:44;21.90;99.90
23751;DHT22;12055;52.098;13.176;2022-09-25T12:56:41;21.80;99.90
23751;DHT22;12055;52.098;13.176;2022-09-25T12:59:28;21.80;99.90
23751;DHT22;12055;52.098;13.176;2022-09-25T13:02:10;21.70;99.90
23751;DHT22;12055;52.098;13.176;2022-09-25T13:04:59;21.80;99.90
23751;DHT22;12055;52.098;13.176;2022-09-25T13:10:44;21.90;99.90
23751;DHT22;12055;52.098;13.176;2022-09-25T13:13:14;22.00;99.90
23751;DHT22;12055;52.098;13.176;2022-09-25T13:15:47;21.90;99.90
23751;DHT22;12055;52.098;13.176;2022-09-25T13:18:20;22.00;99.90
23751;DHT22;12055;52.098;13.176;2022-09-25T13:20:48;22.40;99.90
23751;DHT22;12055;52.098;13.176;2022-09-25T13:25:51;23.40;99.90
23751;DHT22;12055;52.098;13.176;2022-09-25T13:28:31;23.20;99.90
23751;DHT22;12055;52.098;13.176;2022-09-25T13:31:08;22.90;99.90
23751;DHT22;12055;52.098;13.176;2022-09-25T13:33:43;22.50;99.90
23751;DHT22;12055;52.098;13.176;2022-09-25T13:36:30;22.70;99.90
23751;DHT22;12055;52.098;13.176;2022-09-25T13:39:00;23.20;99.90
23751;DHT22;12055;52.098;13.176;2022-09-25T13:41:49;23.30;99.90
23751;DHT22;12055;52.098;13.176;2022-09-25T14:00:20;21.80;99.90
23751;DHT22;12055;52.098;13.176;2022-09-25T14:02:46;21.50;99.90
23751;DHT22;12055;52.098;13.176;2022-09-25T14:05:15;21.20;99.90
23751;DHT22;12055;52.098;13.176;2022-09-25T14:07:42;20.80;99.90
23751;DHT22;12055;52.098;13.176;2022-09-25T14:10:09;20.60;99.90
23751;DHT22;12055;52.098;13.176;2022-09-25T14:12:36;20.70;99.90
23751;DHT22;12055;52.098;13.176;2022-09-25T14:15:17;20.70;99.90
23751;DHT22;12055;52.098;13.176;2022-09-25T14:17:45;20.70;99.90
23751;DHT22;12055;52.098;13.176;2022-09-25T14:20:40;21.50;99.90
23751;DHT22;12055;52.098;13.176;2022-09-25T14:23:23;23.00;99.90
23751;DHT22;12055;52.098;13.176;2022-09-25T14:26:03;23.60;99.90
23751;DHT22;12055;52.098;13.176;2022-09-25T14:28:34;23.60;99.90
23751;DHT22;12055;52.098;13.176;2022-09-25T14:36:57;25.20;99.90
23751;DHT22;12055;52.098;13.176;2022-09-25T14:40:04;25.50;99.90
23751;DHT22;12055;52.098;13.176;2022-09-25T14:47:38;27.20;99.90
23751;DHT22;12055;52.098;13.176;2022-09-25T14:50:09;26.20;99.90
23751;DHT22;12055;52.098;13.176;2022-09-25T14:52:40;25.10;99.90
23751;DHT22;12055;52.098;13.176;2022-09-25T14:55:16;24.10;99.90
23751;DHT22;12055;52.098;13.176;2022-09-25T14:57:46;23.70;99.90
23751;DHT22;12055;52.098;13.176;2022-09-25T15:00:16;23.10;99.90
23751;DHT22;12055;52.098;13.176;2022-09-25T15:02:44;22.60;99.90
23751;DHT22;12055;52.098;13.176;2022-09-25T15:07:52;22.00;99.90
23751;DHT22;12055;52.098;13.176;2022-09-25T15:12:49;21.50;99.90
23751;DHT22;12055;52.098;13.176;2022-09-25T15:15:15;21.20;99.90
23751;DHT22;12055;52.098;13.176;2022-09-25T15:17:50;21.00;99.90
23751;DHT22;12055;52.098;13.176;2022-09-25T15:20:20;20.70;99.90
23751;DHT22;12055;52.098;13.176;2022-09-25T15:25:26;20.10;99.90
23751;DHT22;12055;52.098;13.176;2022-09-25T15:27:53;20.10;99.90
23751;DHT22;12055;52.098;13.176;2022-09-25T15:30:18;20.00;99.90
23751;DHT22;12055;52.098;13.176;2022-09-25T15:32:47;19.80;99.90
23751;DHT22;12055;52.098;13.176;2022-09-25T15:35:22;19.60;99.90
23751;DHT22;12055;52.098;13.176;2022-09-25T15:37:48;19.40;99.90
23751;DHT22;12055;52.098;13.176;2022-09-25T15:40:23;19.20;99.90
23751;DHT22;12055;52.098;13.176;2022-09-25T15:42:55;19.00;99.90
23751;DHT22;12055;52.098;13.176;2022-09-25T15:48:18;19.00;99.90
23751;DHT22;12055;52.098;13.176;2022-09-25T15:50:45;19.00;99.90
23751;DHT22;12055;52.098;13.176;2022-09-25T15:53:24;19.00;99.90
23751;DHT22;12055;52.098;13.176;2022-09-25T15:56:00;18.80;99.90
23751;DHT22;12055;52.098;13.176;2022-09-25T15:58:27;18.80;99.90
23751;DHT22;12055;52.098;13.176;2022-09-25T16:01:00;18.70;99.90
23751;DHT22;12055;52.098;13.176;2022-09-25T16:03:50;18.50;99.90
23751;DHT22;12055;52.098;13.176;2022-09-25T16:06:40;18.80;99.90
23751;DHT22;12055;52.098;13.176;2022-09-25T16:09:08;19.00;99.90
23751;DHT22;12055;52.098;13.176;2022-09-25T16:11:34;19.30;99.90
23751;DHT22;12055;52.098;13.176;2022-09-25T16:16:50;19.00;99.90
23751;DHT22;12055;52.098;13.176;2022-09-25T16:21:51;18.40;99.90
23751;DHT22;12055;52.098;13.176;2022-09-25T16:24:27;18.10;99.90
23751;DHT22;12055;52.098;13.176;2022-09-25T16:27:01;17.90;99.90
23751;DHT22;12055;52.098;13.176;2022-09-25T16:29:32;17.70;99.90
23751;DHT22;12055;52.098;13.176;2022-09-25T16:32:04;17.60;99.90
23751;DHT22;12055;52.098;13.176;2022-09-25T16:34:34;17.40;99.90
23751;DHT22;12055;52.098;13.176;2022-09-25T16:37:02;17.30;99.90
23751;DHT22;12055;52.098;13.176;2022-09-25T16:39:30;17.20;99.90
23751;DHT22;12055;52.098;13.176;2022-09-25T16:41:57;17.20;99.90
23751;DHT22;12055;52.098;13.176;2022-09-25T16:49:22;17.00;99.90
23751;DHT22;12055;52.098;13.176;2022-09-25T16:51:49;16.90;99.90
23751;DHT22;12055;52.098;13.176;2022-09-25T16:54:17;16.90;99.90
23751;DHT22;12055;52.098;13.176;2022-09-25T16:56:45;16.80;99.90
23751;DHT22;12055;52.098;13.176;2022-09-25T16:59:21;16.70;99.90
23751;DHT22;12055;52.098;13.176;2022-09-25T17:01:49;16.60;99.90
23751;DHT22;12055;52.098;13.176;2022-09-25T17:04:15;16.50;99.90
23751;DHT22;12055;52.098;13.176;2022-09-25T17:06:42;16.50;99.90
23751;DHT22;12055;52.098;13.176;2022-09-25T17:09:11;16.50;99.90
23751;DHT22;12055;52.098;13.176;2022-09-25T17:11:37;16.40;99.90
23751;DHT22;12055;52.098;13.176;2022-09-25T17:14:04;16.40;99.90
23751;DHT22;12055;52.098;13.176;2022-09-25T17:16:31;16.30;99.90
23751;DHT22;12055;52.098;13.176;2022-09-25T17:18:57;16.30;99.90
23751;DHT22;12055;52.098;13.176;2022-09-25T17:21:22;16.20;99.90
23751;DHT22;12055;52.098;13.176;2022-09-25T17:23:47;16.20;99.90
23751;DHT22;12055;52.098;13.176;2022-09-25T17:26:23;16.10;99.90
23751;DHT22;12055;52.098;13.176;2022-09-25T17:28:49;16.00;99.90
23751;DHT22;12055;52.098;13.176;2022-09-25T17:31:18;15.90;99.90
23751;DHT22;12055;52.098;13.176;2022-09-25T17:33:45;15.80;99.90
23751;DHT22;12055;52.098;13.176;2022-09-25T17:36:11;15.60;99.90
23751;DHT22;12055;52.098;13.176;2022-09-25T17:38:37;15.50;99.90
23751;DHT22;12055;52.098;13.176;2022-09-25T17:41:13;15.40;99.90